Página principal
METAR-TAF:

METAR-TAF

Aeroportos :

Aeroporto Internacional Modibo Keita

Bamako, Mali

latitude: 12-32N, longitude: 007-57W, altura: 380 m

Observação actual do tempo

O boletim foi feito há 18 minutos, às 10:00 UTC
Vento 12 kt de nor-nordeste
Temperatura 23°C
Humidade 15%
Pressão 1020 hPa
Visibilidade 10 km ou mais
sem nuvens abaixo de 1500 metros e sem cumulonimbus

METAR: GABS 191000Z 02012KT CAVOK 23/M05 Q1020 NOSIG

Hora: 10:18 (10:18 UTC)

Previsão

O boletim foi feito há 4 horas e 53 minutos, às 05:25 UTC
Previsão válida de 19 às 06 UTC a 20 às 12 UTC
Vento 7 kt de nor-nordeste
Visibilidade 10 km ou mais
sem nuvens abaixo de 1500 metros e sem cumulonimbus

TAF: GABS 190525Z 1906/2012 02007KT CAVOK

Observações e previsões do tempo de mais de 4000 aeroportos (mensagens METAR e TAF).

As estações disponíveis são os pontos amarelos e vermelhos sobre o mapa.

Mova o rato sobre o mapa para ver o nome da estação.

Depois clique no ponto para visualizar as observações e previsões meteorológicas.

Para alterar o mapa : clique nos botões verdes com uma cruz preta para aumentar o zoom; no botão verde com uma pitada de zoom; ou nas setas verdes para mapas adjacentes.


METAR-TAF: